sensor_id;sensor_type;location;lat;lon;timestamp;P1;durP1;ratioP1;P2;durP2;ratioP2
41943;SDS011;27636;52.610;13.244;2022-10-31T00:02:53;31.53;;;16.00;;
41943;SDS011;27636;52.610;13.244;2022-10-31T00:07:56;36.17;;;17.83;;
41943;SDS011;27636;52.610;13.244;2022-10-31T00:13:00;37.78;;;19.85;;
41943;SDS011;27636;52.610;13.244;2022-10-31T00:18:04;37.97;;;16.92;;
41943;SDS011;27636;52.610;13.244;2022-10-31T00:23:08;37.30;;;17.88;;
41943;SDS011;27636;52.610;13.244;2022-10-31T00:28:14;42.85;;;18.30;;
41943;SDS011;27636;52.610;13.244;2022-10-31T00:33:18;33.95;;;16.65;;
41943;SDS011;27636;52.610;13.244;2022-10-31T00:38:22;38.25;;;18.98;;
41943;SDS011;27636;52.610;13.244;2022-10-31T00:43:26;38.70;;;18.25;;
41943;SDS011;27636;52.610;13.244;2022-10-31T00:48:30;39.95;;;19.15;;
41943;SDS011;27636;52.610;13.244;2022-10-31T00:53:33;31.92;;;16.95;;
41943;SDS011;27636;52.610;13.244;2022-10-31T00:58:39;34.13;;;16.55;;
41943;SDS011;27636;52.610;13.244;2022-10-31T01:03:43;40.70;;;18.50;;
41943;SDS011;27636;52.610;13.244;2022-10-31T01:08:47;42.10;;;19.33;;
41943;SDS011;27636;52.610;13.244;2022-10-31T01:13:53;37.75;;;18.60;;
41943;SDS011;27636;52.610;13.244;2022-10-31T01:18:57;36.92;;;17.67;;
41943;SDS011;27636;52.610;13.244;2022-10-31T01:24:02;34.10;;;16.80;;
41943;SDS011;27636;52.610;13.244;2022-10-31T01:29:07;31.23;;;17.05;;
41943;SDS011;27636;52.610;13.244;2022-10-31T01:34:12;42.25;;;17.75;;
41943;SDS011;27636;52.610;13.244;2022-10-31T01:39:17;39.15;;;16.92;;
41943;SDS011;27636;52.610;13.244;2022-10-31T01:49:57;41.30;;;16.67;;
41943;SDS011;27636;52.610;13.244;2022-10-31T01:55:04;50.45;;;18.48;;
41943;SDS011;27636;52.610;13.244;2022-10-31T02:00:12;39.58;;;18.63;;
41943;SDS011;27636;52.610;13.244;2022-10-31T02:05:17;37.75;;;17.95;;
41943;SDS011;27636;52.610;13.244;2022-10-31T02:10:23;39.05;;;18.73;;
41943;SDS011;27636;52.610;13.244;2022-10-31T02:15:28;38.97;;;16.88;;
41943;SDS011;27636;52.610;13.244;2022-10-31T02:20:36;35.75;;;17.88;;
41943;SDS011;27636;52.610;13.244;2022-10-31T02:25:58;45.75;;;17.08;;
41943;SDS011;27636;52.610;13.244;2022-10-31T02:31:24;31.55;;;16.02;;
41943;SDS011;27636;52.610;13.244;2022-10-31T02:36:37;29.92;;;14.25;;
41943;SDS011;27636;52.610;13.244;2022-10-31T02:41:47;30.77;;;16.65;;
41943;SDS011;27636;52.610;13.244;2022-10-31T02:46:58;32.03;;;16.02;;
41943;SDS011;27636;52.610;13.244;2022-10-31T02:52:13;38.78;;;15.57;;
41943;SDS011;27636;52.610;13.244;2022-10-31T02:57:18;36.17;;;16.40;;
41943;SDS011;27636;52.610;13.244;2022-10-31T03:02:33;38.20;;;16.75;;
41943;SDS011;27636;52.610;13.244;2022-10-31T03:07:47;31.98;;;15.13;;
41943;SDS011;27636;52.610;13.244;2022-10-31T03:13:00;34.33;;;16.05;;
41943;SDS011;27636;52.610;13.244;2022-10-31T03:18:12;38.92;;;16.67;;
41943;SDS011;27636;52.610;13.244;2022-10-31T03:23:20;38.53;;;16.23;;
41943;SDS011;27636;52.610;13.244;2022-10-31T03:28:27;32.95;;;15.80;;
41943;SDS011;27636;52.610;13.244;2022-10-31T03:33:35;36.50;;;16.70;;
41943;SDS011;27636;52.610;13.244;2022-10-31T03:38:40;29.30;;;15.75;;
41943;SDS011;27636;52.610;13.244;2022-10-31T03:43:47;32.78;;;16.65;;
41943;SDS011;27636;52.610;13.244;2022-10-31T03:48:56;34.83;;;15.38;;
41943;SDS011;27636;52.610;13.244;2022-10-31T03:59:07;30.95;;;14.77;;
41943;SDS011;27636;52.610;13.244;2022-10-31T04:04:17;32.03;;;14.93;;
41943;SDS011;27636;52.610;13.244;2022-10-31T04:09:24;35.33;;;15.88;;
41943;SDS011;27636;52.610;13.244;2022-10-31T04:14:30;31.02;;;13.40;;
41943;SDS011;27636;52.610;13.244;2022-10-31T04:19:36;32.33;;;13.57;;
41943;SDS011;27636;52.610;13.244;2022-10-31T04:24:40;36.83;;;15.10;;
41943;SDS011;27636;52.610;13.244;2022-10-31T04:29:46;32.88;;;14.10;;
41943;SDS011;27636;52.610;13.244;2022-10-31T04:34:54;32.70;;;15.02;;
41943;SDS011;27636;52.610;13.244;2022-10-31T04:39:57;28.07;;;13.90;;
41943;SDS011;27636;52.610;13.244;2022-10-31T04:45:23;27.52;;;13.60;;
41943;SDS011;27636;52.610;13.244;2022-10-31T04:50:29;30.65;;;15.07;;
41943;SDS011;27636;52.610;13.244;2022-10-31T04:55:34;30.65;;;14.45;;
41943;SDS011;27636;52.610;13.244;2022-10-31T05:00:52;38.33;;;14.90;;
41943;SDS011;27636;52.610;13.244;2022-10-31T05:05:57;30.88;;;13.95;;
41943;SDS011;27636;52.610;13.244;2022-10-31T05:11:01;26.20;;;13.45;;
41943;SDS011;27636;52.610;13.244;2022-10-31T05:16:06;29.23;;;12.35;;
41943;SDS011;27636;52.610;13.244;2022-10-31T05:21:30;30.52;;;14.50;;
41943;SDS011;27636;52.610;13.244;2022-10-31T05:56:47;25.80;;;11.32;;
41943;SDS011;27636;52.610;13.244;2022-10-31T06:01:51;28.38;;;13.32;;
41943;SDS011;27636;52.610;13.244;2022-10-31T06:07:13;33.75;;;13.70;;
41943;SDS011;27636;52.610;13.244;2022-10-31T06:12:18;25.58;;;13.25;;
41943;SDS011;27636;52.610;13.244;2022-10-31T06:17:39;23.33;;;12.82;;
41943;SDS011;27636;52.610;13.244;2022-10-31T06:22:59;29.52;;;14.07;;
41943;SDS011;27636;52.610;13.244;2022-10-31T06:50:44;29.42;;;14.15;;
41943;SDS011;27636;52.610;13.244;2022-10-31T06:55:49;31.88;;;14.45;;
41943;SDS011;27636;52.610;13.244;2022-10-31T07:08:27;30.90;;;14.83;;
41943;SDS011;27636;52.610;13.244;2022-10-31T07:13:30;26.17;;;11.90;;
41943;SDS011;27636;52.610;13.244;2022-10-31T07:18:42;23.73;;;11.40;;
41943;SDS011;27636;52.610;13.244;2022-10-31T07:29:11;21.85;;;10.80;;
41943;SDS011;27636;52.610;13.244;2022-10-31T07:34:15;27.13;;;12.98;;
41943;SDS011;27636;52.610;13.244;2022-10-31T07:39:55;28.23;;;13.07;;
41943;SDS011;27636;52.610;13.244;2022-10-31T07:44:58;30.43;;;12.20;;
41943;SDS011;27636;52.610;13.244;2022-10-31T07:50:32;21.02;;;10.88;;
41943;SDS011;27636;52.610;13.244;2022-10-31T07:56:10;24.58;;;10.75;;
41943;SDS011;27636;52.610;13.244;2022-10-31T08:01:15;32.42;;;12.70;;
41943;SDS011;27636;52.610;13.244;2022-10-31T08:06:27;26.73;;;11.68;;
41943;SDS011;27636;52.610;13.244;2022-10-31T08:33:02;33.47;;;13.30;;
41943;SDS011;27636;52.610;13.244;2022-10-31T08:38:25;27.08;;;12.85;;
41943;SDS011;27636;52.610;13.244;2022-10-31T08:43:32;34.80;;;14.50;;
41943;SDS011;27636;52.610;13.244;2022-10-31T08:48:36;28.15;;;13.68;;
41943;SDS011;27636;52.610;13.244;2022-10-31T08:59:02;28.40;;;13.60;;
41943;SDS011;27636;52.610;13.244;2022-10-31T09:04:24;30.08;;;12.43;;
41943;SDS011;27636;52.610;13.244;2022-10-31T09:09:27;28.48;;;12.77;;
41943;SDS011;27636;52.610;13.244;2022-10-31T09:14:30;32.58;;;12.15;;
41943;SDS011;27636;52.610;13.244;2022-10-31T09:19:55;26.33;;;12.45;;
41943;SDS011;27636;52.610;13.244;2022-10-31T09:25:03;24.33;;;11.02;;
41943;SDS011;27636;52.610;13.244;2022-10-31T09:30:07;22.50;;;9.50;;
41943;SDS011;27636;52.610;13.244;2022-10-31T09:35:12;27.23;;;11.33;;
41943;SDS011;27636;52.610;13.244;2022-10-31T09:40:16;29.60;;;12.63;;
41943;SDS011;27636;52.610;13.244;2022-10-31T09:45:23;27.88;;;12.48;;
41943;SDS011;27636;52.610;13.244;2022-10-31T09:50:38;28.38;;;12.82;;
41943;SDS011;27636;52.610;13.244;2022-10-31T09:56:20;32.70;;;12.88;;
41943;SDS011;27636;52.610;13.244;2022-10-31T10:01:33;33.25;;;12.70;;
41943;SDS011;27636;52.610;13.244;2022-10-31T10:06:46;29.15;;;13.32;;
41943;SDS011;27636;52.610;13.244;2022-10-31T10:12:13;27.65;;;13.32;;
41943;SDS011;27636;52.610;13.244;2022-10-31T10:17:37;39.90;;;14.30;;
41943;SDS011;27636;52.610;13.244;2022-10-31T10:22:47;33.67;;;13.93;;
41943;SDS011;27636;52.610;13.244;2022-10-31T10:28:00;24.55;;;12.98;;
41943;SDS011;27636;52.610;13.244;2022-10-31T11:18:24;38.20;;;17.60;;
41943;SDS011;27636;52.610;13.244;2022-10-31T11:23:29;33.50;;;15.75;;
41943;SDS011;27636;52.610;13.244;2022-10-31T11:28:33;32.10;;;14.38;;
41943;SDS011;27636;52.610;13.244;2022-10-31T11:33:39;39.65;;;16.23;;
41943;SDS011;27636;52.610;13.244;2022-10-31T11:38:49;36.97;;;16.30;;
41943;SDS011;27636;52.610;13.244;2022-10-31T11:43:54;42.38;;;17.63;;
41943;SDS011;27636;52.610;13.244;2022-10-31T11:49:01;35.38;;;16.25;;
41943;SDS011;27636;52.610;13.244;2022-10-31T11:54:05;32.70;;;15.48;;
41943;SDS011;27636;52.610;13.244;2022-10-31T12:09:33;41.75;;;16.10;;
41943;SDS011;27636;52.610;13.244;2022-10-31T12:14:41;36.28;;;15.30;;
41943;SDS011;27636;52.610;13.244;2022-10-31T12:19:59;40.25;;;17.67;;
41943;SDS011;27636;52.610;13.244;2022-10-31T12:25:12;35.38;;;15.32;;
41943;SDS011;27636;52.610;13.244;2022-10-31T12:30:26;39.97;;;16.40;;
41943;SDS011;27636;52.610;13.244;2022-10-31T12:35:36;36.80;;;18.02;;
41943;SDS011;27636;52.610;13.244;2022-10-31T12:40:53;35.50;;;15.88;;
41943;SDS011;27636;52.610;13.244;2022-10-31T12:46:12;37.40;;;16.07;;
41943;SDS011;27636;52.610;13.244;2022-10-31T12:51:32;39.33;;;16.42;;
41943;SDS011;27636;52.610;13.244;2022-10-31T12:56:43;44.55;;;18.05;;
41943;SDS011;27636;52.610;13.244;2022-10-31T13:01:55;46.75;;;18.73;;
41943;SDS011;27636;52.610;13.244;2022-10-31T13:07:05;48.22;;;21.52;;
41943;SDS011;27636;52.610;13.244;2022-10-31T13:12:14;44.65;;;20.63;;
41943;SDS011;27636;52.610;13.244;2022-10-31T13:17:22;44.45;;;20.00;;
41943;SDS011;27636;52.610;13.244;2022-10-31T13:36:00;60.60;;;20.73;;
41943;SDS011;27636;52.610;13.244;2022-10-31T13:41:19;54.25;;;21.40;;
41943;SDS011;27636;52.610;13.244;2022-10-31T13:46:34;47.00;;;20.75;;
41943;SDS011;27636;52.610;13.244;2022-10-31T13:51:41;46.97;;;19.83;;
41943;SDS011;27636;52.610;13.244;2022-10-31T13:56:47;61.38;;;21.50;;
41943;SDS011;27636;52.610;13.244;2022-10-31T14:01:53;53.95;;;20.70;;
41943;SDS011;27636;52.610;13.244;2022-10-31T14:07:05;58.67;;;23.27;;
41943;SDS011;27636;52.610;13.244;2022-10-31T14:12:12;52.50;;;20.98;;
41943;SDS011;27636;52.610;13.244;2022-10-31T14:17:36;52.58;;;21.77;;
41943;SDS011;27636;52.610;13.244;2022-10-31T14:22:49;60.13;;;23.23;;
41943;SDS011;27636;52.610;13.244;2022-10-31T14:27:52;62.17;;;21.90;;
41943;SDS011;27636;52.610;13.244;2022-10-31T14:32:57;56.47;;;22.45;;
41943;SDS011;27636;52.610;13.244;2022-10-31T14:43:41;64.22;;;24.08;;
41943;SDS011;27636;52.610;13.244;2022-10-31T14:49:12;62.70;;;25.10;;
41943;SDS011;27636;52.610;13.244;2022-10-31T14:54:32;65.70;;;24.65;;
41943;SDS011;27636;52.610;13.244;2022-10-31T14:59:37;64.07;;;24.80;;
41943;SDS011;27636;52.610;13.244;2022-10-31T15:04:46;60.58;;;22.55;;
41943;SDS011;27636;52.610;13.244;2022-10-31T15:09:59;56.40;;;22.95;;
41943;SDS011;27636;52.610;13.244;2022-10-31T15:15:12;59.83;;;23.65;;
41943;SDS011;27636;52.610;13.244;2022-10-31T15:20:18;65.53;;;23.45;;
41943;SDS011;27636;52.610;13.244;2022-10-31T15:30:29;58.55;;;22.63;;
41943;SDS011;27636;52.610;13.244;2022-10-31T15:35:32;66.32;;;21.85;;
41943;SDS011;27636;52.610;13.244;2022-10-31T15:40:37;58.97;;;21.42;;
41943;SDS011;27636;52.610;13.244;2022-10-31T15:45:41;59.83;;;22.40;;
41943;SDS011;27636;52.610;13.244;2022-10-31T16:05:16;54.25;;;20.67;;
41943;SDS011;27636;52.610;13.244;2022-10-31T16:10:21;65.38;;;22.25;;
41943;SDS011;27636;52.610;13.244;2022-10-31T16:15:27;57.15;;;19.85;;
41943;SDS011;27636;52.610;13.244;2022-10-31T16:20:33;56.00;;;21.42;;
41943;SDS011;27636;52.610;13.244;2022-10-31T16:25:37;52.13;;;21.15;;
41943;SDS011;27636;52.610;13.244;2022-10-31T16:30:41;50.75;;;21.10;;
41943;SDS011;27636;52.610;13.244;2022-10-31T16:43:24;57.55;;;21.38;;
41943;SDS011;27636;52.610;13.244;2022-10-31T16:48:28;52.17;;;20.83;;
41943;SDS011;27636;52.610;13.244;2022-10-31T16:53:31;49.72;;;19.33;;
41943;SDS011;27636;52.610;13.244;2022-10-31T16:58:35;52.75;;;20.90;;
41943;SDS011;27636;52.610;13.244;2022-10-31T17:03:39;51.60;;;18.95;;
41943;SDS011;27636;52.610;13.244;2022-10-31T17:08:42;53.05;;;20.63;;
41943;SDS011;27636;52.610;13.244;2022-10-31T17:13:47;40.13;;;17.08;;
41943;SDS011;27636;52.610;13.244;2022-10-31T17:18:50;49.75;;;20.30;;
41943;SDS011;27636;52.610;13.244;2022-10-31T17:23:54;59.08;;;19.67;;
41943;SDS011;27636;52.610;13.244;2022-10-31T17:28:58;65.78;;;21.20;;
41943;SDS011;27636;52.610;13.244;2022-10-31T17:34:03;58.80;;;22.30;;
41943;SDS011;27636;52.610;13.244;2022-10-31T17:39:08;69.72;;;22.80;;
41943;SDS011;27636;52.610;13.244;2022-10-31T17:44:13;63.40;;;22.58;;
41943;SDS011;27636;52.610;13.244;2022-10-31T17:49:17;58.38;;;21.38;;
41943;SDS011;27636;52.610;13.244;2022-10-31T17:54:20;64.72;;;22.73;;
41943;SDS011;27636;52.610;13.244;2022-10-31T17:59:25;47.50;;;17.92;;
41943;SDS011;27636;52.610;13.244;2022-10-31T18:04:31;51.25;;;19.42;;
41943;SDS011;27636;52.610;13.244;2022-10-31T18:09:35;60.60;;;22.23;;
41943;SDS011;27636;52.610;13.244;2022-10-31T18:35:52;52.50;;;18.88;;
41943;SDS011;27636;52.610;13.244;2022-10-31T18:40:56;53.92;;;18.45;;
41943;SDS011;27636;52.610;13.244;2022-10-31T18:52:19;51.80;;;19.27;;
41943;SDS011;27636;52.610;13.244;2022-10-31T18:57:22;47.47;;;19.13;;
41943;SDS011;27636;52.610;13.244;2022-10-31T19:02:26;47.05;;;17.60;;
41943;SDS011;27636;52.610;13.244;2022-10-31T19:07:30;43.83;;;16.60;;
41943;SDS011;27636;52.610;13.244;2022-10-31T19:12:34;42.33;;;17.77;;
41943;SDS011;27636;52.610;13.244;2022-10-31T19:17:37;51.80;;;18.45;;
41943;SDS011;27636;52.610;13.244;2022-10-31T19:22:41;52.03;;;19.95;;
41943;SDS011;27636;52.610;13.244;2022-10-31T19:27:44;51.57;;;17.80;;
41943;SDS011;27636;52.610;13.244;2022-10-31T19:38:17;48.72;;;19.48;;
41943;SDS011;27636;52.610;13.244;2022-10-31T19:43:21;40.28;;;15.90;;
41943;SDS011;27636;52.610;13.244;2022-10-31T19:48:27;47.83;;;19.20;;
41943;SDS011;27636;52.610;13.244;2022-10-31T19:53:31;57.10;;;18.48;;
41943;SDS011;27636;52.610;13.244;2022-10-31T19:58:35;48.97;;;18.65;;
41943;SDS011;27636;52.610;13.244;2022-10-31T20:03:39;48.42;;;18.30;;
41943;SDS011;27636;52.610;13.244;2022-10-31T20:08:45;61.53;;;19.83;;
41943;SDS011;27636;52.610;13.244;2022-10-31T20:35:48;56.47;;;21.85;;
41943;SDS011;27636;52.610;13.244;2022-10-31T20:40:51;54.93;;;22.13;;
41943;SDS011;27636;52.610;13.244;2022-10-31T20:45:57;51.60;;;21.27;;
41943;SDS011;27636;52.610;13.244;2022-10-31T20:51:03;64.72;;;22.42;;
41943;SDS011;27636;52.610;13.244;2022-10-31T20:56:08;50.80;;;19.35;;
41943;SDS011;27636;52.610;13.244;2022-10-31T21:01:13;56.22;;;20.20;;
41943;SDS011;27636;52.610;13.244;2022-10-31T21:11:25;58.85;;;23.05;;
41943;SDS011;27636;52.610;13.244;2022-10-31T21:16:30;69.30;;;24.33;;
41943;SDS011;27636;52.610;13.244;2022-10-31T21:21:38;54.95;;;21.67;;
41943;SDS011;27636;52.610;13.244;2022-10-31T21:26:43;59.70;;;23.42;;
41943;SDS011;27636;52.610;13.244;2022-10-31T21:31:47;51.05;;;20.13;;
41943;SDS011;27636;52.610;13.244;2022-10-31T21:36:52;57.50;;;22.27;;
41943;SDS011;27636;52.610;13.244;2022-10-31T21:41:55;53.57;;;21.90;;
41943;SDS011;27636;52.610;13.244;2022-10-31T21:46:58;59.33;;;21.75;;
41943;SDS011;27636;52.610;13.244;2022-10-31T21:52:03;66.78;;;24.85;;
41943;SDS011;27636;52.610;13.244;2022-10-31T21:57:06;69.70;;;24.92;;
41943;SDS011;27636;52.610;13.244;2022-10-31T22:02:10;68.30;;;25.27;;
41943;SDS011;27636;52.610;13.244;2022-10-31T22:07:15;72.53;;;26.27;;
41943;SDS011;27636;52.610;13.244;2022-10-31T22:12:19;72.95;;;27.10;;
41943;SDS011;27636;52.610;13.244;2022-10-31T22:17:22;76.95;;;28.45;;
41943;SDS011;27636;52.610;13.244;2022-10-31T22:22:27;82.75;;;27.73;;
41943;SDS011;27636;52.610;13.244;2022-10-31T22:27:30;77.80;;;28.97;;
41943;SDS011;27636;52.610;13.244;2022-10-31T22:32:33;90.05;;;29.25;;
41943;SDS011;27636;52.610;13.244;2022-10-31T22:37:38;80.43;;;28.83;;
41943;SDS011;27636;52.610;13.244;2022-10-31T22:42:41;83.53;;;28.30;;
41943;SDS011;27636;52.610;13.244;2022-10-31T22:47:44;85.05;;;29.58;;
41943;SDS011;27636;52.610;13.244;2022-10-31T22:52:48;99.45;;;31.80;;
41943;SDS011;27636;52.610;13.244;2022-10-31T22:57:52;83.83;;;30.53;;
41943;SDS011;27636;52.610;13.244;2022-10-31T23:02:55;77.78;;;30.52;;
41943;SDS011;27636;52.610;13.244;2022-10-31T23:07:59;82.97;;;30.52;;
41943;SDS011;27636;52.610;13.244;2022-10-31T23:13:03;81.03;;;29.73;;
41943;SDS011;27636;52.610;13.244;2022-10-31T23:18:25;84.53;;;28.30;;
41943;SDS011;27636;52.610;13.244;2022-10-31T23:23:50;91.68;;;30.05;;
41943;SDS011;27636;52.610;13.244;2022-10-31T23:28:53;84.03;;;30.17;;
41943;SDS011;27636;52.610;13.244;2022-10-31T23:33:57;88.55;;;30.10;;
41943;SDS011;27636;52.610;13.244;2022-10-31T23:39:01;80.00;;;29.25;;
41943;SDS011;27636;52.610;13.244;2022-10-31T23:44:05;83.05;;;29.55;;
41943;SDS011;27636;52.610;13.244;2022-10-31T23:49:08;74.20;;;28.83;;
41943;SDS011;27636;52.610;13.244;2022-10-31T23:54:13;87.22;;;30.33;;
41943;SDS011;27636;52.610;13.244;2022-10-31T23:59:16;96.70;;;30.33;;
